PWSweather.com
Personal Weather Stations
Station Observations
WESTON01
WestonSuperMareGB BS22 8RT

WestonSuperMareGB BS22 8RT

Lat: 51.351508, Lon: -2.933373

Elevation: 15

Station Type: Fine Offset WH1080

http://www.westonweather.co.uk

High Low Average
Temperature 69.5°F20.8°C 56.4°F13.6°C 60.6°F15.9°C
Dew Point 52.6°F11.4°C 45.9°F7.7°C 49.4°F9.7°C
Winds 6.8 mph 10.9 kmh Calm Calm 2.0 mph SW3.2 kmh SW
Wind Gusts 9.5 mph15.3 kmh -- 4.0 mph6.4 kmh
Humidity 77% 53% 67%
Pressure 30.02 in1016.6 mb 29.91 in1012.9 mb -
Precipitation 0.00 in0.0 mm - -
Hour Temp Dew Point Humidity Winds Wind Gusts Pressure Precip Precip Rate Daily Precip Total
12:00 AM 58.0°F14.4°C 49.4°F9.7°C 73% 2.5 mph SSW4.0 kmh SSW 4.5 mph7.2 kmh 30.02 in1016.6 mb 0.00 in0.0 mm 0.00 in0.0 mm 0.00 in0.0 mm
12:05 AM 58.0°F14.4°C 49.4°F9.7°C 73% 2.3 mph SSW3.7 kmh SSW 4.5 mph7.2 kmh 30.02 in1016.6 mb 0.00 in0.0 mm 0.00 in0.0 mm 0.00 in0.0 mm
12:10 AM 58.0°F14.4°C 49.4°F9.7°C 73% 1.4 mph S2.3 kmh S 3.3 mph5.3 kmh 30.02 in1016.6 mb 0.00 in0.0 mm 0.00 in0.0 mm 0.00 in0.0 mm
12:15 AM 58.0°F14.4°C 49.8°F9.9°C 74% 0.4 mph S0.6 kmh S 1.5 mph2.4 kmh 30.02 in1016.6 mb 0.00 in0.0 mm 0.00 in0.0 mm 0.00 in0.0 mm
12:20 AM 57.8°F14.3°C 49.6°F9.8°C 74% 0.4 mph SW0.6 kmh SW 2.1 mph3.4 kmh 30.02 in1016.6 mb 0.00 in0.0 mm 0.00 in0.0 mm 0.00 in0.0 mm
12:25 AM 57.8°F14.3°C 49.6°F9.8°C 74% 0.7 mph S1.1 kmh S 2.1 mph3.4 kmh 30.02 in1016.6 mb 0.00 in0.0 mm 0.00 in0.0 mm 0.00 in0.0 mm
12:30 AM 57.8°F14.3°C 49.6°F9.8°C 74% 1.1 mph SSW1.8 kmh SSW 2.7 mph4.3 kmh 30.02 in1016.6 mb 0.00 in0.0 mm 0.00 in0.0 mm 0.00 in0.0 mm
12:35 AM 57.7°F14.3°C 49.8°F9.9°C 75% 0.7 mph SW1.1 kmh SW 2.7 mph4.3 kmh 30.02 in1016.6 mb 0.00 in0.0 mm 0.00 in0.0 mm 0.00 in0.0 mm
12:40 AM 57.7°F14.3°C 49.8°F9.9°C 75% 0.1 mph SW0.2 kmh SW 1.5 mph2.4 kmh 30.02 in1016.6 mb 0.00 in0.0 mm 0.00 in0.0 mm 0.00 in0.0 mm
12:45 AM 57.7°F14.3°C 49.8°F9.9°C 75% Calm Calm -- 30.02 in1016.6 mb 0.00 in0.0 mm 0.00 in0.0 mm 0.00 in0.0 mm
12:50 AM 57.7°F14.3°C 49.8°F9.9°C 75% 0.2 mph SW0.3 kmh SW 1.8 mph2.9 kmh 30.02 in1016.6 mb 0.00 in0.0 mm 0.00 in0.0 mm 0.00 in0.0 mm
12:55 AM 57.7°F14.3°C 49.8°F9.9°C 75% 0.8 mph SW1.3 kmh SW 2.7 mph4.3 kmh 30.02 in1016.6 mb 0.00 in0.0 mm 0.00 in0.0 mm 0.00 in0.0 mm
01:00 AM 57.7°F14.3°C 49.8°F9.9°C 75% 0.8 mph SW1.3 kmh SW 2.7 mph4.3 kmh 30.02 in1016.6 mb 0.00 in0.0 mm 0.00 in0.0 mm 0.00 in0.0 mm
01:05 AM 57.7°F14.3°C 50.1°F10.1°C 76% 0.8 mph WSW1.3 kmh WSW 3.0 mph4.8 kmh 30.02 in1016.6 mb 0.00 in0.0 mm 0.00 in0.0 mm 0.00 in0.0 mm
01:10 AM 57.5°F14.2°C 50.0°F10.0°C 76% 0.7 mph W1.1 kmh W 3.0 mph4.8 kmh 30.02 in1016.6 mb 0.00 in0.0 mm 0.00 in0.0 mm 0.00 in0.0 mm
01:15 AM 57.5°F14.2°C 50.0°F10.0°C 76% 0.4 mph WSW0.6 kmh WSW 1.8 mph2.9 kmh 30.02 in1016.6 mb 0.00 in0.0 mm 0.00 in0.0 mm 0.00 in0.0 mm
01:20 AM 57.5°F14.2°C 50.0°F10.0°C 76% 0.5 mph WSW0.8 kmh WSW 1.8 mph2.9 kmh 30.02 in1016.6 mb 0.00 in0.0 mm 0.00 in0.0 mm 0.00 in0.0 mm
01:25 AM 57.5°F14.2°C 50.0°F10.0°C 76% 0.8 mph WSW1.3 kmh WSW 3.0 mph4.8 kmh 30.02 in1016.6 mb 0.00 in0.0 mm 0.00 in0.0 mm 0.00 in0.0 mm
01:30 AM 57.5°F14.2°C 50.0°F10.0°C 76% 1.0 mph WSW1.6 kmh WSW 3.0 mph4.8 kmh 30.02 in1016.6 mb 0.00 in0.0 mm 0.00 in0.0 mm 0.00 in0.0 mm
01:35 AM 57.5°F14.2°C 50.0°F10.0°C 76% 0.5 mph WSW0.8 kmh WSW 3.0 mph4.8 kmh 30.02 in1016.6 mb 0.00 in0.0 mm 0.00 in0.0 mm 0.00 in0.0 mm
01:40 AM 57.3°F14.1°C 49.8°F9.9°C 76% 0.1 mph WSW0.2 kmh WSW 1.5 mph2.4 kmh 29.99 in1015.6 mb 0.00 in0.0 mm 0.00 in0.0 mm 0.00 in0.0 mm
01:45 AM 57.3°F14.1°C 49.8°F9.9°C 76% 0.3 mph WSW0.5 kmh WSW 1.5 mph2.4 kmh 29.99 in1015.6 mb 0.00 in0.0 mm 0.00 in0.0 mm 0.00 in0.0 mm
01:50 AM 57.3°F14.1°C 49.8°F9.9°C 76% 0.4 mph WSW0.6 kmh WSW 1.5 mph2.4 kmh 29.99 in1015.6 mb 0.00 in0.0 mm 0.00 in0.0 mm 0.00 in0.0 mm
01:55 AM 57.3°F14.1°C 49.8°F9.9°C 76% 0.2 mph WSW0.3 kmh WSW 1.5 mph2.4 kmh 29.99 in1015.6 mb 0.00 in0.0 mm 0.00 in0.0 mm 0.00 in0.0 mm
02:00 AM 57.3°F14.1°C 49.8°F9.9°C 76% Calm Calm -- 29.99 in1015.6 mb 0.00 in0.0 mm 0.00 in0.0 mm 0.00 in0.0 mm
02:05 AM 57.3°F14.1°C 49.8°F9.9°C 76% Calm Calm -- 29.99 in1015.6 mb 0.00 in0.0 mm 0.00 in0.0 mm 0.00 in0.0 mm
02:10 AM 57.3°F14.1°C 49.8°F9.9°C 76% Calm Calm -- 29.99 in1015.6 mb 0.00 in0.0 mm 0.00 in0.0 mm 0.00 in0.0 mm
02:15 AM 57.1°F13.9°C 49.6°F9.8°C 76% Calm Calm -- 29.99 in1015.6 mb 0.00 in0.0 mm 0.00 in0.0 mm 0.00 in0.0 mm
02:20 AM 57.1°F13.9°C 49.6°F9.8°C 76% Calm Calm -- 29.99 in1015.6 mb 0.00 in0.0 mm 0.00 in0.0 mm 0.00 in0.0 mm
02:25 AM 57.1°F13.9°C 50.0°F10.0°C 77% Calm Calm -- 29.99 in1015.6 mb 0.00 in0.0 mm 0.00 in0.0 mm 0.00 in0.0 mm
02:30 AM 57.1°F13.9°C 50.0°F10.0°C 77% Calm Calm -- 29.99 in1015.6 mb 0.00 in0.0 mm 0.00 in0.0 mm 0.00 in0.0 mm
02:35 AM 57.1°F13.9°C 50.0°F10.0°C 77% Calm Calm -- 29.99 in1015.6 mb 0.00 in0.0 mm 0.00 in0.0 mm 0.00 in0.0 mm
02:40 AM 57.1°F13.9°C 50.0°F10.0°C 77% Calm Calm -- 29.99 in1015.6 mb 0.00 in0.0 mm 0.00 in0.0 mm 0.00 in0.0 mm
02:45 AM 57.1°F13.9°C 50.0°F10.0°C 77% Calm Calm -- 29.99 in1015.6 mb 0.00 in0.0 mm 0.00 in0.0 mm 0.00 in0.0 mm
02:50 AM 57.1°F13.9°C 50.0°F10.0°C 77% Calm Calm -- 29.99 in1015.6 mb 0.00 in0.0 mm 0.00 in0.0 mm 0.00 in0.0 mm
02:55 AM 57.1°F13.9°C 50.0°F10.0°C 77% Calm Calm -- 29.99 in1015.6 mb 0.00 in0.0 mm 0.00 in0.0 mm 0.00 in0.0 mm
03:00 AM 57.1°F13.9°C 50.0°F10.0°C 77% 0.5 mph S0.8 kmh S 1.8 mph2.9 kmh 29.99 in1015.6 mb 0.00 in0.0 mm 0.00 in0.0 mm 0.00 in0.0 mm
03:05 AM 57.1°F13.9°C 50.0°F10.0°C 77% 0.8 mph SSW1.3 kmh SSW 1.8 mph2.9 kmh 29.99 in1015.6 mb 0.00 in0.0 mm 0.00 in0.0 mm 0.00 in0.0 mm
03:10 AM 57.1°F13.9°C 50.0°F10.0°C 77% 0.5 mph SSW0.8 kmh SSW 1.8 mph2.9 kmh 29.99 in1015.6 mb 0.00 in0.0 mm 0.00 in0.0 mm 0.00 in0.0 mm
03:15 AM 57.1°F13.9°C 50.0°F10.0°C 77% 0.1 mph SW0.2 kmh SW 1.8 mph2.9 kmh 29.99 in1015.6 mb 0.00 in0.0 mm 0.00 in0.0 mm 0.00 in0.0 mm
03:20 AM 57.1°F13.9°C 50.0°F10.0°C 77% 0.2 mph S0.3 kmh S 1.5 mph2.4 kmh 29.99 in1015.6 mb 0.00 in0.0 mm 0.00 in0.0 mm 0.00 in0.0 mm
03:25 AM 56.9°F13.8°C 49.8°F9.9°C 77% 0.2 mph S0.3 kmh S 1.5 mph2.4 kmh 29.99 in1015.6 mb 0.00 in0.0 mm 0.00 in0.0 mm 0.00 in0.0 mm
03:30 AM 56.9°F13.8°C 49.8°F9.9°C 77% Calm Calm -- 29.99 in1015.6 mb 0.00 in0.0 mm 0.00 in0.0 mm 0.00 in0.0 mm
03:35 AM 56.9°F13.8°C 49.8°F9.9°C 77% Calm Calm -- 29.99 in1015.6 mb 0.00 in0.0 mm 0.00 in0.0 mm 0.00 in0.0 mm
03:40 AM 56.9°F13.8°C 49.8°F9.9°C 77% 1.0 mph SSW1.6 kmh SSW 3.9 mph6.3 kmh 29.99 in1015.6 mb 0.00 in0.0 mm 0.00 in0.0 mm 0.00 in0.0 mm
03:45 AM 56.9°F13.8°C 49.4°F9.7°C 76% 1.6 mph SSW2.6 kmh SSW 3.9 mph6.3 kmh 29.99 in1015.6 mb 0.00 in0.0 mm 0.00 in0.0 mm 0.00 in0.0 mm
03:50 AM 56.9°F13.8°C 49.4°F9.7°C 76% 1.0 mph S1.6 kmh S 3.3 mph5.3 kmh 29.99 in1015.6 mb 0.00 in0.0 mm 0.00 in0.0 mm 0.00 in0.0 mm
03:55 AM 56.9°F13.8°C 49.4°F9.7°C 76% 1.0 mph SSW1.6 kmh SSW 3.3 mph5.3 kmh 29.99 in1015.6 mb 0.00 in0.0 mm 0.00 in0.0 mm 0.00 in0.0 mm
04:00 AM 56.9°F13.8°C 49.4°F9.7°C 76% 1.1 mph SSW1.8 kmh SSW 3.3 mph5.3 kmh 29.99 in1015.6 mb 0.00 in0.0 mm 0.00 in0.0 mm 0.00 in0.0 mm
04:05 AM 56.8°F13.8°C 49.3°F9.6°C 76% 0.3 mph SW0.5 kmh SW 2.1 mph3.4 kmh 29.99 in1015.6 mb 0.00 in0.0 mm 0.00 in0.0 mm 0.00 in0.0 mm
04:10 AM 56.8°F13.8°C 49.3°F9.6°C 76% 0.2 mph SW0.3 kmh SW 1.2 mph1.9 kmh 29.99 in1015.6 mb 0.00 in0.0 mm 0.00 in0.0 mm 0.00 in0.0 mm
04:15 AM 56.8°F13.8°C 49.3°F9.6°C 76% 0.3 mph SW0.5 kmh SW 1.5 mph2.4 kmh 29.99 in1015.6 mb 0.00 in0.0 mm 0.00 in0.0 mm 0.00 in0.0 mm
04:20 AM 56.8°F13.8°C 49.3°F9.6°C 76% 0.1 mph SW0.2 kmh SW 1.5 mph2.4 kmh 29.99 in1015.6 mb 0.00 in0.0 mm 0.00 in0.0 mm 0.00 in0.0 mm
04:25 AM 56.8°F13.8°C 49.3°F9.6°C 76% 0.6 mph SSE1.0 kmh SSE 3.0 mph4.8 kmh 29.99 in1015.6 mb 0.00 in0.0 mm 0.00 in0.0 mm 0.00 in0.0 mm
04:40 AM 56.6°F13.7°C 49.1°F9.5°C 76% 0.9 mph S1.4 kmh S 2.1 mph3.4 kmh 29.99 in1015.6 mb 0.00 in0.0 mm 0.00 in0.0 mm 0.00 in0.0 mm
04:45 AM 56.6°F13.7°C 49.1°F9.5°C 76% 0.9 mph S1.4 kmh S 3.0 mph4.8 kmh 29.99 in1015.6 mb 0.00 in0.0 mm 0.00 in0.0 mm 0.00 in0.0 mm
04:50 AM 56.6°F13.7°C 49.1°F9.5°C 76% 1.1 mph S1.8 kmh S 3.6 mph5.8 kmh 29.99 in1015.6 mb 0.00 in0.0 mm 0.00 in0.0 mm 0.00 in0.0 mm
04:55 AM 56.6°F13.7°C 49.1°F9.5°C 76% 1.4 mph S2.3 kmh S 3.6 mph5.8 kmh 29.99 in1015.6 mb 0.00 in0.0 mm 0.00 in0.0 mm 0.00 in0.0 mm
05:00 AM 56.6°F13.7°C 49.1°F9.5°C 76% 1.0 mph SW1.6 kmh SW 3.3 mph5.3 kmh 29.99 in1015.6 mb 0.00 in0.0 mm 0.00 in0.0 mm 0.00 in0.0 mm
05:05 AM 56.6°F13.7°C 49.1°F9.5°C 76% 0.5 mph NW0.8 kmh NW 2.1 mph3.4 kmh 29.99 in1015.6 mb 0.00 in0.0 mm 0.00 in0.0 mm 0.00 in0.0 mm
05:10 AM 56.6°F13.7°C 49.4°F9.7°C 77% 0.5 mph W0.8 kmh W 2.7 mph4.3 kmh 29.99 in1015.6 mb 0.00 in0.0 mm 0.00 in0.0 mm 0.00 in0.0 mm
05:15 AM 56.6°F13.7°C 49.4°F9.7°C 77% 0.2 mph SW0.3 kmh SW 2.7 mph4.3 kmh 29.99 in1015.6 mb 0.00 in0.0 mm 0.00 in0.0 mm 0.00 in0.0 mm
05:20 AM 56.6°F13.7°C 49.4°F9.7°C 77% 0.3 mph SE0.5 kmh SE 2.1 mph3.4 kmh 29.99 in1015.6 mb 0.00 in0.0 mm 0.00 in0.0 mm 0.00 in0.0 mm
05:25 AM 56.6°F13.7°C 49.4°F9.7°C 77% 0.4 mph SE0.6 kmh SE 2.1 mph3.4 kmh 29.99 in1015.6 mb 0.00 in0.0 mm 0.00 in0.0 mm 0.00 in0.0 mm
05:30 AM 56.4°F13.6°C 49.3°F9.6°C 77% 1.3 mph SSW2.1 kmh SSW 3.6 mph5.8 kmh 29.99 in1015.6 mb 0.00 in0.0 mm 0.00 in0.0 mm 0.00 in0.0 mm
05:35 AM 56.4°F13.6°C 49.3°F9.6°C 77% 2.4 mph SSW3.9 kmh SSW 3.9 mph6.3 kmh 29.99 in1015.6 mb 0.00 in0.0 mm 0.00 in0.0 mm 0.00 in0.0 mm
05:40 AM 56.4°F13.6°C 49.3°F9.6°C 77% 2.4 mph S3.9 kmh S 3.9 mph6.3 kmh 29.99 in1015.6 mb 0.00 in0.0 mm 0.00 in0.0 mm 0.00 in0.0 mm
05:45 AM 56.4°F13.6°C 49.3°F9.6°C 77% 1.8 mph SSW2.9 kmh SSW 3.9 mph6.3 kmh 29.99 in1015.6 mb 0.00 in0.0 mm 0.00 in0.0 mm 0.00 in0.0 mm
05:50 AM 56.4°F13.6°C 49.3°F9.6°C 77% 2.9 mph SSW4.7 kmh SSW 3.9 mph6.3 kmh 29.99 in1015.6 mb 0.00 in0.0 mm 0.00 in0.0 mm 0.00 in0.0 mm
05:55 AM 56.4°F13.6°C 49.3°F9.6°C 77% 3.0 mph SSW4.8 kmh SSW 3.9 mph6.3 kmh 29.99 in1015.6 mb 0.00 in0.0 mm 0.00 in0.0 mm 0.00 in0.0 mm
06:00 AM 56.4°F13.6°C 49.3°F9.6°C 77% 1.6 mph SSW2.6 kmh SSW 3.9 mph6.3 kmh 29.99 in1015.6 mb 0.00 in0.0 mm 0.00 in0.0 mm 0.00 in0.0 mm
06:05 AM 56.4°F13.6°C 49.3°F9.6°C 77% Calm Calm -- 29.99 in1015.6 mb 0.00 in0.0 mm 0.00 in0.0 mm 0.00 in0.0 mm
06:10 AM 56.4°F13.6°C 49.3°F9.6°C 77% Calm Calm -- 29.99 in1015.6 mb 0.00 in0.0 mm 0.00 in0.0 mm 0.00 in0.0 mm
06:15 AM 56.4°F13.6°C 49.3°F9.6°C 77% 0.2 mph SE0.3 kmh SE 3.0 mph4.8 kmh 29.99 in1015.6 mb 0.00 in0.0 mm 0.00 in0.0 mm 0.00 in0.0 mm
06:20 AM 56.6°F13.7°C 49.4°F9.7°C 77% 1.1 mph SSW1.8 kmh SSW 3.9 mph6.3 kmh 29.99 in1015.6 mb 0.00 in0.0 mm 0.00 in0.0 mm 0.00 in0.0 mm
06:25 AM 56.6°F13.7°C 49.4°F9.7°C 77% 1.7 mph SW2.7 kmh SW 3.9 mph6.3 kmh 29.99 in1015.6 mb 0.00 in0.0 mm 0.00 in0.0 mm 0.00 in0.0 mm
06:30 AM 56.6°F13.7°C 49.4°F9.7°C 77% 1.1 mph S1.8 kmh S 3.0 mph4.8 kmh 29.99 in1015.6 mb 0.00 in0.0 mm 0.00 in0.0 mm 0.00 in0.0 mm
06:35 AM 56.8°F13.8°C 49.6°F9.8°C 77% 1.3 mph S2.1 kmh S 3.6 mph5.8 kmh 29.99 in1015.6 mb 0.00 in0.0 mm 0.00 in0.0 mm 0.00 in0.0 mm
06:40 AM 56.8°F13.8°C 49.6°F9.8°C 77% 2.5 mph S4.0 kmh S 3.9 mph6.3 kmh 30.02 in1016.6 mb 0.00 in0.0 mm 0.00 in0.0 mm 0.00 in0.0 mm
06:45 AM 56.8°F13.8°C 49.6°F9.8°C 77% 2.9 mph S4.7 kmh S 4.2 mph6.8 kmh 30.02 in1016.6 mb 0.00 in0.0 mm 0.00 in0.0 mm 0.00 in0.0 mm
06:50 AM 56.8°F13.8°C 49.6°F9.8°C 77% 3.1 mph S5.0 kmh S 4.8 mph7.7 kmh 30.02 in1016.6 mb 0.00 in0.0 mm 0.00 in0.0 mm 0.00 in0.0 mm
06:55 AM 56.9°F13.8°C 49.8°F9.9°C 77% 3.5 mph S5.6 kmh S 6.0 mph9.7 kmh 30.02 in1016.6 mb 0.00 in0.0 mm 0.00 in0.0 mm 0.00 in0.0 mm
07:00 AM 57.1°F13.9°C 50.0°F10.0°C 77% 3.7 mph S6.0 kmh S 6.0 mph9.7 kmh 30.02 in1016.6 mb 0.00 in0.0 mm 0.00 in0.0 mm 0.00 in0.0 mm
07:05 AM 57.3°F14.1°C 50.1°F10.1°C 77% 3.8 mph S6.1 kmh S 5.1 mph8.2 kmh 30.02 in1016.6 mb 0.00 in0.0 mm 0.00 in0.0 mm 0.00 in0.0 mm
07:10 AM 57.5°F14.2°C 50.3°F10.2°C 77% 3.8 mph SSW6.1 kmh SSW 5.1 mph8.2 kmh 30.02 in1016.6 mb 0.00 in0.0 mm 0.00 in0.0 mm 0.00 in0.0 mm
07:15 AM 57.7°F14.3°C 50.5°F10.3°C 77% 3.8 mph S6.1 kmh S 5.7 mph9.2 kmh 30.02 in1016.6 mb 0.00 in0.0 mm 0.00 in0.0 mm 0.00 in0.0 mm
07:20 AM 57.7°F14.3°C 50.5°F10.3°C 77% 4.4 mph S7.1 kmh S 5.7 mph9.2 kmh 30.02 in1016.6 mb 0.00 in0.0 mm 0.00 in0.0 mm 0.00 in0.0 mm
07:25 AM 57.8°F14.3°C 50.3°F10.2°C 76% 4.0 mph S6.4 kmh S 5.7 mph9.2 kmh 29.99 in1015.6 mb 0.00 in0.0 mm 0.00 in0.0 mm 0.00 in0.0 mm
07:30 AM 58.0°F14.4°C 50.5°F10.3°C 76% 3.5 mph S5.6 kmh S 4.2 mph6.8 kmh 29.99 in1015.6 mb 0.00 in0.0 mm 0.00 in0.0 mm 0.00 in0.0 mm
07:35 AM 58.0°F14.4°C 50.5°F10.3°C 76% 4.0 mph SSW6.4 kmh SSW 6.2 mph10.0 kmh 29.99 in1015.6 mb 0.00 in0.0 mm 0.00 in0.0 mm 0.00 in0.0 mm
07:40 AM 58.2°F14.6°C 50.7°F10.4°C 76% 4.3 mph S6.9 kmh S 6.2 mph10.0 kmh 29.99 in1015.6 mb 0.00 in0.0 mm 0.00 in0.0 mm 0.00 in0.0 mm
07:45 AM 58.2°F14.6°C 50.3°F10.2°C 75% 4.3 mph S6.9 kmh S 5.4 mph8.7 kmh 29.99 in1015.6 mb 0.00 in0.0 mm 0.00 in0.0 mm 0.00 in0.0 mm
07:50 AM 58.2°F14.6°C 50.3°F10.2°C 75% 4.2 mph S6.8 kmh S 5.4 mph8.7 kmh 29.99 in1015.6 mb 0.00 in0.0 mm 0.00 in0.0 mm 0.00 in0.0 mm
07:55 AM 58.2°F14.6°C 50.3°F10.2°C 75% 3.6 mph S5.8 kmh S 4.8 mph7.7 kmh 30.02 in1016.6 mb 0.00 in0.0 mm 0.00 in0.0 mm 0.00 in0.0 mm
08:00 AM 58.2°F14.6°C 50.3°F10.2°C 75% 4.1 mph S6.6 kmh S 6.5 mph10.5 kmh 30.02 in1016.6 mb 0.00 in0.0 mm 0.00 in0.0 mm 0.00 in0.0 mm
08:05 AM 58.4°F14.7°C 50.5°F10.3°C 75% 4.5 mph S7.2 kmh S 6.5 mph10.5 kmh 30.02 in1016.6 mb 0.00 in0.0 mm 0.00 in0.0 mm 0.00 in0.0 mm
08:10 AM 58.4°F14.7°C 50.5°F10.3°C 75% 4.7 mph S7.6 kmh S 8.0 mph12.9 kmh 30.02 in1016.6 mb 0.00 in0.0 mm 0.00 in0.0 mm 0.00 in0.0 mm
08:15 AM 58.4°F14.7°C 50.5°F10.3°C 75% 4.9 mph S7.9 kmh S 8.0 mph12.9 kmh 30.02 in1016.6 mb 0.00 in0.0 mm 0.00 in0.0 mm 0.00 in0.0 mm
08:20 AM 58.5°F14.7°C 50.6°F10.3°C 75% 4.9 mph S7.9 kmh S 7.7 mph12.4 kmh 30.02 in1016.6 mb 0.00 in0.0 mm 0.00 in0.0 mm 0.00 in0.0 mm
08:25 AM 58.5°F14.7°C 50.6°F10.3°C 75% 5.2 mph S8.4 kmh S 7.7 mph12.4 kmh 29.99 in1015.6 mb 0.00 in0.0 mm 0.00 in0.0 mm 0.00 in0.0 mm
08:30 AM 58.5°F14.7°C 50.6°F10.3°C 75% 4.8 mph S7.7 kmh S 7.7 mph12.4 kmh 29.99 in1015.6 mb 0.00 in0.0 mm 0.00 in0.0 mm 0.00 in0.0 mm
08:35 AM 58.7°F14.8°C 50.8°F10.4°C 75% 3.6 mph SSW5.8 kmh SSW 4.8 mph7.7 kmh 29.99 in1015.6 mb 0.00 in0.0 mm 0.00 in0.0 mm 0.00 in0.0 mm
08:40 AM 58.9°F14.9°C 51.0°F10.6°C 75% 3.5 mph S5.6 kmh S 6.2 mph10.0 kmh 29.99 in1015.6 mb 0.00 in0.0 mm 0.00 in0.0 mm 0.00 in0.0 mm
08:45 AM 59.1°F15.1°C 50.8°F10.4°C 74% 3.4 mph SW5.5 kmh SW 6.2 mph10.0 kmh 29.99 in1015.6 mb 0.00 in0.0 mm 0.00 in0.0 mm 0.00 in0.0 mm
08:50 AM 59.3°F15.2°C 51.0°F10.6°C 74% 3.4 mph SW5.5 kmh SW 4.8 mph7.7 kmh 29.99 in1015.6 mb 0.00 in0.0 mm 0.00 in0.0 mm 0.00 in0.0 mm
08:55 AM 59.5°F15.3°C 51.2°F10.7°C 74% 2.8 mph S4.5 kmh S 4.8 mph7.7 kmh 30.02 in1016.6 mb 0.00 in0.0 mm 0.00 in0.0 mm 0.00 in0.0 mm
09:00 AM 59.6°F15.3°C 51.3°F10.7°C 74% 2.8 mph S4.5 kmh S 4.8 mph7.7 kmh 30.02 in1016.6 mb 0.00 in0.0 mm 0.00 in0.0 mm 0.00 in0.0 mm
09:05 AM 59.8°F15.4°C 51.1°F10.6°C 73% 2.7 mph SSW4.3 kmh SSW 5.4 mph8.7 kmh 30.02 in1016.6 mb 0.00 in0.0 mm 0.00 in0.0 mm 0.00 in0.0 mm
09:10 AM 59.8°F15.4°C 51.1°F10.6°C 73% 3.5 mph SW5.6 kmh SW 6.5 mph10.5 kmh 30.02 in1016.6 mb 0.00 in0.0 mm 0.00 in0.0 mm 0.00 in0.0 mm
09:15 AM 59.8°F15.4°C 50.8°F10.4°C 72% 4.2 mph SSW6.8 kmh SSW 6.5 mph10.5 kmh 30.02 in1016.6 mb 0.00 in0.0 mm 0.00 in0.0 mm 0.00 in0.0 mm
09:20 AM 60.0°F15.6°C 50.9°F10.5°C 72% 4.2 mph S6.8 kmh S 6.2 mph10.0 kmh 30.02 in1016.6 mb 0.00 in0.0 mm 0.00 in0.0 mm 0.00 in0.0 mm
09:25 AM 60.2°F15.7°C 50.7°F10.4°C 71% 3.6 mph S5.8 kmh S 6.2 mph10.0 kmh 30.02 in1016.6 mb 0.00 in0.0 mm 0.00 in0.0 mm 0.00 in0.0 mm
09:30 AM 60.2°F15.7°C 50.7°F10.4°C 71% 3.4 mph SW5.5 kmh SW 6.2 mph10.0 kmh 30.02 in1016.6 mb 0.00 in0.0 mm 0.00 in0.0 mm 0.00 in0.0 mm
09:35 AM 60.3°F15.7°C 50.5°F10.3°C 70% 3.8 mph SW6.1 kmh SW 6.2 mph10.0 kmh 30.02 in1016.6 mb 0.00 in0.0 mm 0.00 in0.0 mm 0.00 in0.0 mm
09:40 AM 60.5°F15.8°C 50.3°F10.2°C 69% 3.3 mph SSW5.3 kmh SSW 4.8 mph7.7 kmh 29.99 in1015.6 mb 0.00 in0.0 mm 0.00 in0.0 mm 0.00 in0.0 mm
09:45 AM 60.5°F15.8°C 49.9°F9.9°C 68% 3.3 mph SW5.3 kmh SW 5.7 mph9.2 kmh 29.99 in1015.6 mb 0.00 in0.0 mm 0.00 in0.0 mm 0.00 in0.0 mm
09:50 AM 60.7°F15.9°C 50.1°F10.1°C 68% 3.7 mph WSW6.0 kmh WSW 5.7 mph9.2 kmh 29.99 in1015.6 mb 0.00 in0.0 mm 0.00 in0.0 mm 0.00 in0.0 mm
09:55 AM 60.7°F15.9°C 50.1°F10.1°C 68% 3.8 mph SW6.1 kmh SW 5.7 mph9.2 kmh 30.02 in1016.6 mb 0.00 in0.0 mm 0.00 in0.0 mm 0.00 in0.0 mm
10:00 AM 60.9°F16.1°C 49.9°F9.9°C 67% 3.8 mph SW6.1 kmh SW 5.7 mph9.2 kmh 30.02 in1016.6 mb 0.00 in0.0 mm 0.00 in0.0 mm 0.00 in0.0 mm
10:05 AM 61.1°F16.2°C 50.0°F10.0°C 67% 4.4 mph WSW7.1 kmh WSW 8.3 mph13.4 kmh 30.02 in1016.6 mb 0.00 in0.0 mm 0.00 in0.0 mm 0.00 in0.0 mm
10:10 AM 61.1°F16.2°C 49.6°F9.8°C 66% 4.9 mph WSW7.9 kmh WSW 8.3 mph13.4 kmh 29.99 in1015.6 mb 0.00 in0.0 mm 0.00 in0.0 mm 0.00 in0.0 mm
10:15 AM 61.1°F16.2°C 49.6°F9.8°C 66% 4.1 mph SW6.6 kmh SW 6.0 mph9.7 kmh 29.99 in1015.6 mb 0.00 in0.0 mm 0.00 in0.0 mm 0.00 in0.0 mm
10:20 AM 61.1°F16.2°C 49.6°F9.8°C 66% 3.9 mph SW6.3 kmh SW 5.7 mph9.2 kmh 29.99 in1015.6 mb 0.00 in0.0 mm 0.00 in0.0 mm 0.00 in0.0 mm
10:25 AM 61.1°F16.2°C 49.6°F9.8°C 66% 4.3 mph WSW6.9 kmh WSW 5.7 mph9.2 kmh 30.02 in1016.6 mb 0.00 in0.0 mm 0.00 in0.0 mm 0.00 in0.0 mm
10:30 AM 61.3°F16.3°C 49.8°F9.9°C 66% 3.9 mph WSW6.3 kmh WSW 5.4 mph8.7 kmh 30.02 in1016.6 mb 0.00 in0.0 mm 0.00 in0.0 mm 0.00 in0.0 mm
10:35 AM 61.4°F16.3°C 49.6°F9.8°C 65% 3.6 mph WSW5.8 kmh WSW 5.4 mph8.7 kmh 30.02 in1016.6 mb 0.00 in0.0 mm 0.00 in0.0 mm 0.00 in0.0 mm
10:40 AM 61.8°F16.6°C 49.9°F9.9°C 65% 3.4 mph W5.5 kmh W 6.5 mph10.5 kmh 29.99 in1015.6 mb 0.00 in0.0 mm 0.00 in0.0 mm 0.00 in0.0 mm
10:45 AM 62.0°F16.7°C 50.1°F10.1°C 65% 3.3 mph WSW5.3 kmh WSW 6.5 mph10.5 kmh 29.99 in1015.6 mb 0.00 in0.0 mm 0.00 in0.0 mm 0.00 in0.0 mm
10:50 AM 62.2°F16.8°C 50.2°F10.1°C 65% 4.2 mph WSW6.8 kmh WSW 6.5 mph10.5 kmh 29.99 in1015.6 mb 0.00 in0.0 mm 0.00 in0.0 mm 0.00 in0.0 mm
10:55 AM 62.2°F16.8°C 50.2°F10.1°C 65% 4.9 mph WSW7.9 kmh WSW 8.6 mph13.8 kmh 30.02 in1016.6 mb 0.00 in0.0 mm 0.00 in0.0 mm 0.00 in0.0 mm
11:00 AM 62.5°F16.9°C 50.2°F10.1°C 64% 5.1 mph WSW8.2 kmh WSW 8.6 mph13.8 kmh 30.02 in1016.6 mb 0.00 in0.0 mm 0.00 in0.0 mm 0.00 in0.0 mm
11:05 AM 62.5°F16.9°C 49.7°F9.8°C 63% 4.2 mph SW6.8 kmh SW 7.4 mph11.9 kmh 30.02 in1016.6 mb 0.00 in0.0 mm 0.00 in0.0 mm 0.00 in0.0 mm
11:10 AM 62.7°F17.1°C 49.9°F9.9°C 63% 3.7 mph SW6.0 kmh SW 4.8 mph7.7 kmh 30.02 in1016.6 mb 0.00 in0.0 mm 0.00 in0.0 mm 0.00 in0.0 mm
11:15 AM 62.7°F17.1°C 49.9°F9.9°C 63% 4.8 mph SW7.7 kmh SW 7.1 mph11.4 kmh 30.02 in1016.6 mb 0.00 in0.0 mm 0.00 in0.0 mm 0.00 in0.0 mm
11:20 AM 62.9°F17.2°C 50.1°F10.1°C 63% 5.3 mph WSW8.5 kmh WSW 8.3 mph13.4 kmh 30.02 in1016.6 mb 0.00 in0.0 mm 0.00 in0.0 mm 0.00 in0.0 mm
11:25 AM 62.9°F17.2°C 50.1°F10.1°C 63% 5.4 mph W8.7 kmh W 8.3 mph13.4 kmh 29.99 in1015.6 mb 0.00 in0.0 mm 0.00 in0.0 mm 0.00 in0.0 mm
11:30 AM 62.9°F17.2°C 50.1°F10.1°C 63% 4.9 mph W7.9 kmh W 6.5 mph10.5 kmh 29.99 in1015.6 mb 0.00 in0.0 mm 0.00 in0.0 mm 0.00 in0.0 mm
11:35 AM 62.9°F17.2°C 49.6°F9.8°C 62% 3.9 mph WSW6.3 kmh WSW 6.5 mph10.5 kmh 29.99 in1015.6 mb 0.00 in0.0 mm 0.00 in0.0 mm 0.00 in0.0 mm
11:40 AM 63.0°F17.2°C 49.8°F9.9°C 62% 2.9 mph WSW4.7 kmh WSW 6.2 mph10.0 kmh 29.99 in1015.6 mb 0.00 in0.0 mm 0.00 in0.0 mm 0.00 in0.0 mm
11:45 AM 63.0°F17.2°C 49.8°F9.9°C 62% 2.2 mph SW3.5 kmh SW 4.8 mph7.7 kmh 30.00 in1015.9 mb 0.00 in0.0 mm 0.00 in0.0 mm 0.00 in0.0 mm
11:50 AM 63.2°F17.3°C 50.0°F10.0°C 62% 3.6 mph WSW5.8 kmh WSW 6.5 mph10.5 kmh 30.00 in1015.9 mb 0.00 in0.0 mm 0.00 in0.0 mm 0.00 in0.0 mm
11:55 AM 63.2°F17.3°C 50.0°F10.0°C 62% 4.7 mph WSW7.6 kmh WSW 6.5 mph10.5 kmh 30.00 in1015.9 mb 0.00 in0.0 mm 0.00 in0.0 mm 0.00 in0.0 mm
12:00 PM 63.0°F17.2°C 49.8°F9.9°C 62% 4.8 mph SW7.7 kmh SW 8.0 mph12.9 kmh 30.00 in1015.9 mb 0.00 in0.0 mm 0.00 in0.0 mm 0.00 in0.0 mm
12:05 PM 63.0°F17.2°C 49.8°F9.9°C 62% 4.0 mph SW6.4 kmh SW 8.0 mph12.9 kmh 30.00 in1015.9 mb 0.00 in0.0 mm 0.00 in0.0 mm 0.00 in0.0 mm
12:10 PM 63.2°F17.3°C 50.0°F10.0°C 62% 2.9 mph SW4.7 kmh SW 5.4 mph8.7 kmh 30.00 in1015.9 mb 0.00 in0.0 mm 0.00 in0.0 mm 0.00 in0.0 mm
12:15 PM 63.4°F17.4°C 50.2°F10.1°C 62% 3.7 mph SW6.0 kmh SW 6.5 mph10.5 kmh 30.00 in1015.9 mb 0.00 in0.0 mm 0.00 in0.0 mm 0.00 in0.0 mm
12:20 PM 63.4°F17.4°C 50.2°F10.1°C 62% 4.9 mph SSW7.9 kmh SSW 7.1 mph11.4 kmh 30.00 in1015.9 mb 0.00 in0.0 mm 0.00 in0.0 mm 0.00 in0.0 mm
12:25 PM 63.6°F17.6°C 50.3°F10.2°C 62% 5.0 mph SSW8.0 kmh SSW 7.7 mph12.4 kmh 30.00 in1015.9 mb 0.00 in0.0 mm 0.00 in0.0 mm 0.00 in0.0 mm
12:30 PM 63.6°F17.6°C 50.3°F10.2°C 62% 4.9 mph S7.9 kmh S 7.7 mph12.4 kmh 30.00 in1015.9 mb 0.00 in0.0 mm 0.00 in0.0 mm 0.00 in0.0 mm
12:35 PM 64.0°F17.8°C 50.2°F10.1°C 61% 3.4 mph S5.5 kmh S 7.1 mph11.4 kmh 30.00 in1015.9 mb 0.00 in0.0 mm 0.00 in0.0 mm 0.00 in0.0 mm
12:40 PM 64.1°F17.8°C 50.4°F10.2°C 61% 2.6 mph SW4.2 kmh SW 5.7 mph9.2 kmh 30.00 in1015.9 mb 0.00 in0.0 mm 0.00 in0.0 mm 0.00 in0.0 mm
12:45 PM 64.1°F17.8°C 50.4°F10.2°C 61% 3.3 mph SW5.3 kmh SW 5.7 mph9.2 kmh 30.00 in1015.9 mb 0.00 in0.0 mm 0.00 in0.0 mm 0.00 in0.0 mm
12:50 PM 64.3°F17.9°C 50.6°F10.3°C 61% 2.7 mph SW4.3 kmh SW 4.2 mph6.8 kmh 30.00 in1015.9 mb 0.00 in0.0 mm 0.00 in0.0 mm 0.00 in0.0 mm
12:55 PM 64.7°F18.2°C 50.9°F10.5°C 61% 2.5 mph SW4.0 kmh SW 4.2 mph6.8 kmh 30.00 in1015.9 mb 0.00 in0.0 mm 0.00 in0.0 mm 0.00 in0.0 mm
01:00 PM 64.7°F18.2°C 50.9°F10.5°C 61% 3.4 mph SSW5.5 kmh SSW 6.5 mph10.5 kmh 30.00 in1015.9 mb 0.00 in0.0 mm 0.00 in0.0 mm 0.00 in0.0 mm
01:05 PM 64.7°F18.2°C 50.9°F10.5°C 61% 3.5 mph S5.6 kmh S 6.5 mph10.5 kmh 30.00 in1015.9 mb 0.00 in0.0 mm 0.00 in0.0 mm 0.00 in0.0 mm
01:10 PM 64.8°F18.2°C 51.1°F10.6°C 61% 3.6 mph S5.8 kmh S 7.4 mph11.9 kmh 30.00 in1015.9 mb 0.00 in0.0 mm 0.00 in0.0 mm 0.00 in0.0 mm
01:15 PM 64.7°F18.2°C 50.9°F10.5°C 61% 5.5 mph SSW8.9 kmh SSW 9.5 mph15.3 kmh 30.00 in1015.9 mb 0.00 in0.0 mm 0.00 in0.0 mm 0.00 in0.0 mm
01:20 PM 64.7°F18.2°C 50.9°F10.5°C 61% 6.8 mph W10.9 kmh W 9.5 mph15.3 kmh 30.00 in1015.9 mb 0.00 in0.0 mm 0.00 in0.0 mm 0.00 in0.0 mm
01:25 PM 64.7°F18.2°C 50.9°F10.5°C 61% 5.7 mph WNW9.2 kmh WNW 8.6 mph13.8 kmh 30.00 in1015.9 mb 0.00 in0.0 mm 0.00 in0.0 mm 0.00 in0.0 mm
01:30 PM 64.8°F18.2°C 51.1°F10.6°C 61% 3.8 mph WNW6.1 kmh WNW 8.3 mph13.4 kmh 30.00 in1015.9 mb 0.00 in0.0 mm 0.00 in0.0 mm 0.00 in0.0 mm
01:35 PM 64.7°F18.2°C 50.9°F10.5°C 61% 3.9 mph WNW6.3 kmh WNW 5.4 mph8.7 kmh 30.00 in1015.9 mb 0.00 in0.0 mm 0.00 in0.0 mm 0.00 in0.0 mm
01:40 PM 64.3°F17.9°C 50.1°F10.1°C 60% 5.0 mph W8.0 kmh W 7.1 mph11.4 kmh 29.97 in1014.9 mb 0.00 in0.0 mm 0.00 in0.0 mm 0.00 in0.0 mm
01:45 PM 64.3°F17.9°C 50.6°F10.3°C 61% 5.0 mph W8.0 kmh W 7.1 mph11.4 kmh 29.97 in1014.9 mb 0.00 in0.0 mm 0.00 in0.0 mm 0.00 in0.0 mm
01:50 PM 64.3°F17.9°C 50.6°F10.3°C 61% 4.3 mph W6.9 kmh W 6.5 mph10.5 kmh 29.97 in1014.9 mb 0.00 in0.0 mm 0.00 in0.0 mm 0.00 in0.0 mm
01:55 PM 64.3°F17.9°C 50.6°F10.3°C 61% 4.4 mph W7.1 kmh W 8.6 mph13.8 kmh 29.97 in1014.9 mb 0.00 in0.0 mm 0.00 in0.0 mm 0.00 in0.0 mm
02:00 PM 64.3°F17.9°C 50.6°F10.3°C 61% 3.1 mph WNW5.0 kmh WNW 8.6 mph13.8 kmh 29.97 in1014.9 mb 0.00 in0.0 mm 0.00 in0.0 mm 0.00 in0.0 mm
02:05 PM 64.3°F17.9°C 50.6°F10.3°C 61% 2.2 mph W3.5 kmh W 4.8 mph7.7 kmh 29.97 in1014.9 mb 0.00 in0.0 mm 0.00 in0.0 mm 0.00 in0.0 mm
02:10 PM 64.7°F18.2°C 50.9°F10.5°C 61% 3.5 mph WNW5.6 kmh WNW 8.0 mph12.9 kmh 29.97 in1014.9 mb 0.00 in0.0 mm 0.00 in0.0 mm 0.00 in0.0 mm
02:15 PM 65.2°F18.4°C 51.0°F10.6°C 60% 4.6 mph WNW7.4 kmh WNW 8.0 mph12.9 kmh 29.97 in1014.9 mb 0.00 in0.0 mm 0.00 in0.0 mm 0.00 in0.0 mm
02:20 PM 65.6°F18.7°C 50.9°F10.5°C 59% 4.2 mph W6.8 kmh W 6.2 mph10.0 kmh 29.97 in1014.9 mb 0.00 in0.0 mm 0.00 in0.0 mm 0.00 in0.0 mm
02:25 PM 66.1°F18.9°C 51.8°F11.0°C 60% 3.7 mph W6.0 kmh W 6.5 mph10.5 kmh 29.97 in1014.9 mb 0.00 in0.0 mm 0.00 in0.0 mm 0.00 in0.0 mm
02:30 PM 66.3°F19.1°C 51.5°F10.8°C 59% 3.3 mph W5.3 kmh W 6.5 mph10.5 kmh 29.97 in1014.9 mb 0.00 in0.0 mm 0.00 in0.0 mm 0.00 in0.0 mm
02:35 PM 66.8°F19.3°C 52.0°F11.1°C 59% 4.0 mph NW6.4 kmh NW 5.1 mph8.2 kmh 29.97 in1014.9 mb 0.00 in0.0 mm 0.00 in0.0 mm 0.00 in0.0 mm
02:40 PM 67.2°F19.6°C 51.9°F11.1°C 58% 3.9 mph NW6.3 kmh NW 5.7 mph9.2 kmh 29.97 in1014.9 mb 0.00 in0.0 mm 0.00 in0.0 mm 0.00 in0.0 mm
02:45 PM 67.7°F19.8°C 52.4°F11.3°C 58% 4.4 mph NW7.1 kmh NW 8.3 mph13.4 kmh 29.97 in1014.9 mb 0.00 in0.0 mm 0.00 in0.0 mm 0.00 in0.0 mm
02:50 PM 67.9°F19.9°C 52.1°F11.2°C 57% 4.9 mph NNW7.9 kmh NNW 8.3 mph13.4 kmh 29.97 in1014.9 mb 0.00 in0.0 mm 0.00 in0.0 mm 0.00 in0.0 mm
02:55 PM 67.9°F19.9°C 52.1°F11.2°C 57% 4.6 mph NNW7.4 kmh NNW 5.4 mph8.7 kmh 29.94 in1013.9 mb 0.00 in0.0 mm 0.00 in0.0 mm 0.00 in0.0 mm
03:00 PM 67.9°F19.9°C 51.6°F10.9°C 56% 4.3 mph N6.9 kmh N 6.0 mph9.7 kmh 29.94 in1013.9 mb 0.00 in0.0 mm 0.00 in0.0 mm 0.00 in0.0 mm
03:05 PM 67.9°F19.9°C 51.6°F10.9°C 56% 4.1 mph NNW6.6 kmh NNW 6.5 mph10.5 kmh 29.94 in1013.9 mb 0.00 in0.0 mm 0.00 in0.0 mm 0.00 in0.0 mm
03:10 PM 68.1°F20.1°C 51.8°F11.0°C 56% 4.4 mph NNW7.1 kmh NNW 6.5 mph10.5 kmh 29.94 in1013.9 mb 0.00 in0.0 mm 0.00 in0.0 mm 0.00 in0.0 mm
03:15 PM 68.1°F20.1°C 51.8°F11.0°C 56% 4.0 mph N6.4 kmh N 5.7 mph9.2 kmh 29.94 in1013.9 mb 0.00 in0.0 mm 0.00 in0.0 mm 0.00 in0.0 mm
03:20 PM 68.1°F20.1°C 51.8°F11.0°C 56% 3.1 mph N5.0 kmh N 5.4 mph8.7 kmh 29.94 in1013.9 mb 0.00 in0.0 mm 0.00 in0.0 mm 0.00 in0.0 mm
03:25 PM 68.1°F20.1°C 51.8°F11.0°C 56% 2.5 mph N4.0 kmh N 4.8 mph7.7 kmh 29.94 in1013.9 mb 0.00 in0.0 mm 0.00 in0.0 mm 0.00 in0.0 mm
03:30 PM 68.4°F20.2°C 52.1°F11.2°C 56% 2.9 mph NNW4.7 kmh NNW 4.5 mph7.2 kmh 29.94 in1013.9 mb 0.00 in0.0 mm 0.00 in0.0 mm 0.00 in0.0 mm
03:35 PM 68.8°F20.4°C 52.0°F11.1°C 55% 3.4 mph N5.5 kmh N 4.5 mph7.2 kmh 29.94 in1013.9 mb 0.00 in0.0 mm 0.00 in0.0 mm 0.00 in0.0 mm
03:40 PM 69.3°F20.7°C 52.5°F11.4°C 55% 3.9 mph N6.3 kmh N 5.7 mph9.2 kmh 29.94 in1013.9 mb 0.00 in0.0 mm 0.00 in0.0 mm 0.00 in0.0 mm
03:45 PM 69.5°F20.8°C 52.6°F11.4°C 55% 4.2 mph NNW6.8 kmh NNW 7.4 mph11.9 kmh 29.94 in1013.9 mb 0.00 in0.0 mm 0.00 in0.0 mm 0.00 in0.0 mm
03:50 PM 69.5°F20.8°C 52.6°F11.4°C 55% 4.8 mph NNW7.7 kmh NNW 7.4 mph11.9 kmh 29.94 in1013.9 mb 0.00 in0.0 mm 0.00 in0.0 mm 0.00 in0.0 mm
03:55 PM 69.5°F20.8°C 52.1°F11.2°C 54% 4.9 mph NW7.9 kmh NW 6.5 mph10.5 kmh 29.94 in1013.9 mb 0.00 in0.0 mm 0.00 in0.0 mm 0.00 in0.0 mm
04:00 PM 69.0°F20.6°C 51.6°F10.9°C 54% 3.6 mph NW5.8 kmh NW 6.5 mph10.5 kmh 29.94 in1013.9 mb 0.00 in0.0 mm 0.00 in0.0 mm 0.00 in0.0 mm
04:05 PM 68.8°F20.4°C 51.0°F10.6°C 53% 3.5 mph NW5.6 kmh NW 5.1 mph8.2 kmh 29.94 in1013.9 mb 0.00 in0.0 mm 0.00 in0.0 mm 0.00 in0.0 mm
04:10 PM 68.6°F20.3°C 50.8°F10.4°C 53% 3.8 mph NW6.1 kmh NW 6.2 mph10.0 kmh 29.94 in1013.9 mb 0.00 in0.0 mm 0.00 in0.0 mm 0.00 in0.0 mm
04:15 PM 67.9°F19.9°C 50.6°F10.3°C 54% 4.8 mph NW7.7 kmh NW 8.0 mph12.9 kmh 29.94 in1013.9 mb 0.00 in0.0 mm 0.00 in0.0 mm 0.00 in0.0 mm
04:20 PM 67.6°F19.8°C 50.3°F10.2°C 54% 4.3 mph NW6.9 kmh NW 8.0 mph12.9 kmh 29.94 in1013.9 mb 0.00 in0.0 mm 0.00 in0.0 mm 0.00 in0.0 mm
04:25 PM 67.2°F19.6°C 50.0°F10.0°C 54% 3.6 mph NW5.8 kmh NW 5.4 mph8.7 kmh 29.94 in1013.9 mb 0.00 in0.0 mm 0.00 in0.0 mm 0.00 in0.0 mm
04:30 PM 67.2°F19.6°C 50.0°F10.0°C 54% 3.5 mph NW5.6 kmh NW 5.4 mph8.7 kmh 29.94 in1013.9 mb 0.00 in0.0 mm 0.00 in0.0 mm 0.00 in0.0 mm
04:35 PM 67.2°F19.6°C 50.0°F10.0°C 54% 3.0 mph NW4.8 kmh NW 4.8 mph7.7 kmh 29.94 in1013.9 mb 0.00 in0.0 mm 0.00 in0.0 mm 0.00 in0.0 mm
04:40 PM 66.8°F19.3°C 49.6°F9.8°C 54% 1.4 mph WNW2.3 kmh WNW 4.8 mph7.7 kmh 29.94 in1013.9 mb 0.00 in0.0 mm 0.00 in0.0 mm 0.00 in0.0 mm
04:45 PM 66.7°F19.3°C 50.0°F10.0°C 55% 1.7 mph NW2.7 kmh NW 4.2 mph6.8 kmh 29.94 in1013.9 mb 0.00 in0.0 mm 0.00 in0.0 mm 0.00 in0.0 mm
04:50 PM 66.5°F19.2°C 49.8°F9.9°C 55% 2.9 mph NW4.7 kmh NW 4.2 mph6.8 kmh 29.94 in1013.9 mb 0.00 in0.0 mm 0.00 in0.0 mm 0.00 in0.0 mm
04:55 PM 65.9°F18.8°C 49.3°F9.6°C 55% 3.5 mph NW5.6 kmh NW 4.2 mph6.8 kmh 29.91 in1012.9 mb 0.00 in0.0 mm 0.00 in0.0 mm 0.00 in0.0 mm
05:00 PM 65.9°F18.8°C 49.3°F9.6°C 55% 2.8 mph NW4.5 kmh NW 4.2 mph6.8 kmh 29.91 in1012.9 mb 0.00 in0.0 mm 0.00 in0.0 mm 0.00 in0.0 mm
05:05 PM 65.9°F18.8°C 49.3°F9.6°C 55% 2.2 mph NW3.5 kmh NW 4.2 mph6.8 kmh 29.91 in1012.9 mb 0.00 in0.0 mm 0.00 in0.0 mm 0.00 in0.0 mm
05:10 PM 65.4°F18.6°C 49.3°F9.6°C 56% 2.0 mph NW3.2 kmh NW 4.2 mph6.8 kmh 29.94 in1013.9 mb 0.00 in0.0 mm 0.00 in0.0 mm 0.00 in0.0 mm
05:15 PM 65.2°F18.4°C 49.1°F9.5°C 56% 2.8 mph NW4.5 kmh NW 5.1 mph8.2 kmh 29.94 in1013.9 mb 0.00 in0.0 mm 0.00 in0.0 mm 0.00 in0.0 mm
05:20 PM 64.7°F18.2°C 49.1°F9.5°C 57% 2.9 mph NW4.7 kmh NW 6.5 mph10.5 kmh 29.94 in1013.9 mb 0.00 in0.0 mm 0.00 in0.0 mm 0.00 in0.0 mm
05:25 PM 64.8°F18.2°C 48.8°F9.3°C 56% 3.2 mph NW5.1 kmh NW 6.5 mph10.5 kmh 29.94 in1013.9 mb 0.00 in0.0 mm 0.00 in0.0 mm 0.00 in0.0 mm
05:30 PM 64.7°F18.2°C 49.1°F9.5°C 57% 2.0 mph NW3.2 kmh NW 4.2 mph6.8 kmh 29.94 in1013.9 mb 0.00 in0.0 mm 0.00 in0.0 mm 0.00 in0.0 mm
05:40 PM 64.3°F17.9°C 48.7°F9.3°C 57% 3.5 mph WNW5.6 kmh WNW 4.5 mph7.2 kmh 29.94 in1013.9 mb 0.00 in0.0 mm 0.00 in0.0 mm 0.00 in0.0 mm
05:45 PM 64.1°F17.8°C 48.6°F9.2°C 57% 3.2 mph NW5.1 kmh NW 4.5 mph7.2 kmh 29.94 in1013.9 mb 0.00 in0.0 mm 0.00 in0.0 mm 0.00 in0.0 mm
05:50 PM 64.0°F17.8°C 48.4°F9.1°C 57% 3.1 mph WNW5.0 kmh WNW 4.2 mph6.8 kmh 29.94 in1013.9 mb 0.00 in0.0 mm 0.00 in0.0 mm 0.00 in0.0 mm
05:55 PM 63.8°F17.7°C 48.2°F9.0°C 57% 3.4 mph W5.5 kmh W 6.5 mph10.5 kmh 29.91 in1012.9 mb 0.00 in0.0 mm 0.00 in0.0 mm 0.00 in0.0 mm
06:00 PM 63.6°F17.6°C 48.5°F9.2°C 58% 3.3 mph WNW5.3 kmh WNW 6.5 mph10.5 kmh 29.91 in1012.9 mb 0.00 in0.0 mm 0.00 in0.0 mm 0.00 in0.0 mm
06:05 PM 63.4°F17.4°C 48.4°F9.1°C 58% 2.4 mph WNW3.9 kmh WNW 6.5 mph10.5 kmh 29.91 in1012.9 mb 0.00 in0.0 mm 0.00 in0.0 mm 0.00 in0.0 mm
06:10 PM 63.2°F17.3°C 48.2°F9.0°C 58% 1.9 mph W3.1 kmh W 3.9 mph6.3 kmh 29.91 in1012.9 mb 0.00 in0.0 mm 0.00 in0.0 mm 0.00 in0.0 mm
06:15 PM 62.9°F17.2°C 48.3°F9.1°C 59% 3.0 mph W4.8 kmh W 4.8 mph7.7 kmh 29.91 in1012.9 mb 0.00 in0.0 mm 0.00 in0.0 mm 0.00 in0.0 mm
06:20 PM 62.7°F17.1°C 48.2°F9.0°C 59% 3.9 mph W6.3 kmh W 6.2 mph10.0 kmh 29.91 in1012.9 mb 0.00 in0.0 mm 0.00 in0.0 mm 0.00 in0.0 mm
06:25 PM 62.5°F16.9°C 48.0°F8.9°C 59% 3.9 mph W6.3 kmh W 6.2 mph10.0 kmh 29.91 in1012.9 mb 0.00 in0.0 mm 0.00 in0.0 mm 0.00 in0.0 mm
06:30 PM 62.3°F16.8°C 47.8°F8.8°C 59% 3.9 mph W6.3 kmh W 5.7 mph9.2 kmh 29.91 in1012.9 mb 0.00 in0.0 mm 0.00 in0.0 mm 0.00 in0.0 mm
06:35 PM 62.3°F16.8°C 48.3°F9.1°C 60% 3.6 mph W5.8 kmh W 6.2 mph10.0 kmh 29.91 in1012.9 mb 0.00 in0.0 mm 0.00 in0.0 mm 0.00 in0.0 mm
06:40 PM 62.2°F16.8°C 48.1°F8.9°C 60% 3.4 mph WNW5.5 kmh WNW 6.2 mph10.0 kmh 29.91 in1012.9 mb 0.00 in0.0 mm 0.00 in0.0 mm 0.00 in0.0 mm
06:45 PM 62.0°F16.7°C 48.4°F9.1°C 61% 3.4 mph WNW5.5 kmh WNW 7.1 mph11.4 kmh 29.91 in1012.9 mb 0.00 in0.0 mm 0.00 in0.0 mm 0.00 in0.0 mm
06:50 PM 61.8°F16.6°C 48.2°F9.0°C 61% 3.8 mph W6.1 kmh W 7.1 mph11.4 kmh 29.91 in1012.9 mb 0.00 in0.0 mm 0.00 in0.0 mm 0.00 in0.0 mm
06:55 PM 61.6°F16.4°C 48.0°F8.9°C 61% 4.4 mph WNW7.1 kmh WNW 7.1 mph11.4 kmh 29.91 in1012.9 mb 0.00 in0.0 mm 0.00 in0.0 mm 0.00 in0.0 mm
07:00 PM 61.4°F16.3°C 48.3°F9.1°C 62% 4.0 mph NW6.4 kmh NW 6.2 mph10.0 kmh 29.91 in1012.9 mb 0.00 in0.0 mm 0.00 in0.0 mm 0.00 in0.0 mm
07:05 PM 61.3°F16.3°C 48.1°F8.9°C 62% 4.2 mph WNW6.8 kmh WNW 6.2 mph10.0 kmh 29.91 in1012.9 mb 0.00 in0.0 mm 0.00 in0.0 mm 0.00 in0.0 mm
07:10 PM 61.1°F16.2°C 48.4°F9.1°C 63% 4.6 mph WNW7.4 kmh WNW 6.2 mph10.0 kmh 29.91 in1012.9 mb 0.00 in0.0 mm 0.00 in0.0 mm 0.00 in0.0 mm
07:15 PM 61.1°F16.2°C 48.4°F9.1°C 63% 4.0 mph NW6.4 kmh NW 6.2 mph10.0 kmh 29.91 in1012.9 mb 0.00 in0.0 mm 0.00 in0.0 mm 0.00 in0.0 mm
07:20 PM 60.9°F16.1°C 48.2°F9.0°C 63% 3.6 mph WNW5.8 kmh WNW 5.1 mph8.2 kmh 29.91 in1012.9 mb 0.00 in0.0 mm 0.00 in0.0 mm 0.00 in0.0 mm
07:25 PM 60.7°F15.9°C 48.0°F8.9°C 63% 4.2 mph NW6.8 kmh NW 7.4 mph11.9 kmh 29.91 in1012.9 mb 0.00 in0.0 mm 0.00 in0.0 mm 0.00 in0.0 mm
07:30 PM 60.5°F15.8°C 47.4°F8.6°C 62% 3.6 mph NW5.8 kmh NW 7.4 mph11.9 kmh 29.91 in1012.9 mb 0.00 in0.0 mm 0.00 in0.0 mm 0.00 in0.0 mm
07:35 PM 60.3°F15.7°C 47.3°F8.5°C 62% 1.9 mph WNW3.1 kmh WNW 3.3 mph5.3 kmh 29.91 in1012.9 mb 0.00 in0.0 mm 0.00 in0.0 mm 0.00 in0.0 mm
07:40 PM 60.2°F15.7°C 47.1°F8.4°C 62% 2.5 mph NW4.0 kmh NW 4.5 mph7.2 kmh 29.91 in1012.9 mb 0.00 in0.0 mm 0.00 in0.0 mm 0.00 in0.0 mm
07:45 PM 60.2°F15.7°C 47.1°F8.4°C 62% 3.1 mph NW5.0 kmh NW 6.2 mph10.0 kmh 29.91 in1012.9 mb 0.00 in0.0 mm 0.00 in0.0 mm 0.00 in0.0 mm
07:50 PM 60.2°F15.7°C 47.1°F8.4°C 62% 2.9 mph NW4.7 kmh NW 6.2 mph10.0 kmh 29.91 in1012.9 mb 0.00 in0.0 mm 0.00 in0.0 mm 0.00 in0.0 mm
07:55 PM 59.8°F15.4°C 46.8°F8.2°C 62% 2.5 mph WNW4.0 kmh WNW 5.1 mph8.2 kmh 29.91 in1012.9 mb 0.00 in0.0 mm 0.00 in0.0 mm 0.00 in0.0 mm
08:00 PM 59.8°F15.4°C 46.8°F8.2°C 62% 2.5 mph WNW4.0 kmh WNW 5.1 mph8.2 kmh 29.91 in1012.9 mb 0.00 in0.0 mm 0.00 in0.0 mm 0.00 in0.0 mm
08:05 PM 59.8°F15.4°C 46.8°F8.2°C 62% 2.0 mph WNW3.2 kmh WNW 5.1 mph8.2 kmh 29.91 in1012.9 mb 0.00 in0.0 mm 0.00 in0.0 mm 0.00 in0.0 mm
08:10 PM 59.6°F15.3°C 47.0°F8.3°C 63% 1.2 mph WNW1.9 kmh WNW 3.6 mph5.8 kmh 29.91 in1012.9 mb 0.00 in0.0 mm 0.00 in0.0 mm 0.00 in0.0 mm
08:15 PM 59.6°F15.3°C 47.0°F8.3°C 63% 1.0 mph WNW1.6 kmh WNW 3.3 mph5.3 kmh 29.91 in1012.9 mb 0.00 in0.0 mm 0.00 in0.0 mm 0.00 in0.0 mm
08:20 PM 59.5°F15.3°C 46.8°F8.2°C 63% 1.4 mph WNW2.3 kmh WNW 3.3 mph5.3 kmh 29.91 in1012.9 mb 0.00 in0.0 mm 0.00 in0.0 mm 0.00 in0.0 mm
08:25 PM 59.5°F15.3°C 46.8°F8.2°C 63% 1.8 mph WNW2.9 kmh WNW 3.3 mph5.3 kmh 29.91 in1012.9 mb 0.00 in0.0 mm 0.00 in0.0 mm 0.00 in0.0 mm
08:30 PM 59.5°F15.3°C 46.8°F8.2°C 63% 1.8 mph WNW2.9 kmh WNW 4.2 mph6.8 kmh 29.91 in1012.9 mb 0.00 in0.0 mm 0.00 in0.0 mm 0.00 in0.0 mm
08:35 PM 59.5°F15.3°C 47.3°F8.5°C 64% 2.1 mph WNW3.4 kmh WNW 4.5 mph7.2 kmh 29.91 in1012.9 mb 0.00 in0.0 mm 0.00 in0.0 mm 0.00 in0.0 mm
08:40 PM 59.5°F15.3°C 47.3°F8.5°C 64% 1.8 mph WNW2.9 kmh WNW 4.5 mph7.2 kmh 29.91 in1012.9 mb 0.00 in0.0 mm 0.00 in0.0 mm 0.00 in0.0 mm
08:45 PM 59.5°F15.3°C 46.8°F8.2°C 63% 2.6 mph WNW4.2 kmh WNW 5.7 mph9.2 kmh 29.91 in1012.9 mb 0.00 in0.0 mm 0.00 in0.0 mm 0.00 in0.0 mm
08:50 PM 59.5°F15.3°C 46.8°F8.2°C 63% 2.9 mph NW4.7 kmh NW 6.5 mph10.5 kmh 29.91 in1012.9 mb 0.00 in0.0 mm 0.00 in0.0 mm 0.00 in0.0 mm
08:55 PM 59.5°F15.3°C 46.8°F8.2°C 63% 1.5 mph WNW2.4 kmh WNW 6.5 mph10.5 kmh 29.91 in1012.9 mb 0.00 in0.0 mm 0.00 in0.0 mm 0.00 in0.0 mm
09:00 PM 59.3°F15.2°C 46.7°F8.2°C 63% 1.2 mph WNW1.9 kmh WNW 2.7 mph4.3 kmh 29.91 in1012.9 mb 0.00 in0.0 mm 0.00 in0.0 mm 0.00 in0.0 mm
09:05 PM 59.3°F15.2°C 46.7°F8.2°C 63% 1.9 mph WNW3.1 kmh WNW 4.8 mph7.7 kmh 29.91 in1012.9 mb 0.00 in0.0 mm 0.00 in0.0 mm 0.00 in0.0 mm
09:10 PM 59.3°F15.2°C 46.7°F8.2°C 63% 2.5 mph WNW4.0 kmh WNW 4.8 mph7.7 kmh 29.91 in1012.9 mb 0.00 in0.0 mm 0.00 in0.0 mm 0.00 in0.0 mm
09:15 PM 59.1°F15.1°C 46.1°F7.8°C 62% 2.2 mph WNW3.5 kmh WNW 3.9 mph6.3 kmh 29.91 in1012.9 mb 0.00 in0.0 mm 0.00 in0.0 mm 0.00 in0.0 mm
09:20 PM 59.1°F15.1°C 46.1°F7.8°C 62% 1.4 mph WNW2.3 kmh WNW 3.6 mph5.8 kmh 29.91 in1012.9 mb 0.00 in0.0 mm 0.00 in0.0 mm 0.00 in0.0 mm
09:25 PM 58.9°F14.9°C 45.9°F7.7°C 62% 1.5 mph WNW2.4 kmh WNW 3.6 mph5.8 kmh 29.91 in1012.9 mb 0.00 in0.0 mm 0.00 in0.0 mm 0.00 in0.0 mm
09:30 PM 58.9°F14.9°C 45.9°F7.7°C 62% 1.5 mph WNW2.4 kmh WNW 3.6 mph5.8 kmh 29.91 in1012.9 mb 0.00 in0.0 mm 0.00 in0.0 mm 0.00 in0.0 mm
09:35 PM 58.9°F14.9°C 45.9°F7.7°C 62% 1.1 mph WNW1.8 kmh WNW 2.7 mph4.3 kmh 29.91 in1012.9 mb 0.00 in0.0 mm 0.00 in0.0 mm 0.00 in0.0 mm
09:40 PM 58.9°F14.9°C 46.3°F7.9°C 63% 0.5 mph WSW0.8 kmh WSW 2.7 mph4.3 kmh 29.91 in1012.9 mb 0.00 in0.0 mm 0.00 in0.0 mm 0.00 in0.0 mm
09:45 PM 58.9°F14.9°C 46.3°F7.9°C 63% 0.2 mph WSW0.3 kmh WSW 1.8 mph2.9 kmh 29.91 in1012.9 mb 0.00 in0.0 mm 0.00 in0.0 mm 0.00 in0.0 mm
09:50 PM 58.9°F14.9°C 46.3°F7.9°C 63% 0.1 mph WSW0.2 kmh WSW 1.2 mph1.9 kmh 29.91 in1012.9 mb 0.00 in0.0 mm 0.00 in0.0 mm 0.00 in0.0 mm
09:55 PM 58.7°F14.8°C 46.2°F7.9°C 63% 0.1 mph WSW0.2 kmh WSW 1.2 mph1.9 kmh 29.91 in1012.9 mb 0.00 in0.0 mm 0.00 in0.0 mm 0.00 in0.0 mm
10:00 PM 58.7°F14.8°C 46.2°F7.9°C 63% 0.2 mph WSW0.3 kmh WSW 1.2 mph1.9 kmh 29.91 in1012.9 mb 0.00 in0.0 mm 0.00 in0.0 mm 0.00 in0.0 mm
10:05 PM 58.7°F14.8°C 46.2°F7.9°C 63% 0.2 mph WSW0.3 kmh WSW 1.5 mph2.4 kmh 29.91 in1012.9 mb 0.00 in0.0 mm 0.00 in0.0 mm 0.00 in0.0 mm
10:10 PM 58.5°F14.7°C 46.4°F8.0°C 64% 0.1 mph WSW0.2 kmh WSW 1.5 mph2.4 kmh 29.91 in1012.9 mb 0.00 in0.0 mm 0.00 in0.0 mm 0.00 in0.0 mm
10:15 PM 58.5°F14.7°C 46.4°F8.0°C 64% 0.2 mph NW0.3 kmh NW 1.8 mph2.9 kmh 29.91 in1012.9 mb 0.00 in0.0 mm 0.00 in0.0 mm 0.00 in0.0 mm
10:20 PM 58.5°F14.7°C 46.4°F8.0°C 64% 1.0 mph WNW1.6 kmh WNW 3.9 mph6.3 kmh 29.91 in1012.9 mb 0.00 in0.0 mm 0.00 in0.0 mm 0.00 in0.0 mm
10:25 PM 58.5°F14.7°C 46.8°F8.2°C 65% 1.3 mph WNW2.1 kmh WNW 3.9 mph6.3 kmh 29.91 in1012.9 mb 0.00 in0.0 mm 0.00 in0.0 mm 0.00 in0.0 mm
10:30 PM 58.5°F14.7°C 46.8°F8.2°C 65% 1.1 mph W1.8 kmh W 3.3 mph5.3 kmh 29.91 in1012.9 mb 0.00 in0.0 mm 0.00 in0.0 mm 0.00 in0.0 mm
10:35 PM 58.5°F14.7°C 46.8°F8.2°C 65% 0.5 mph W0.8 kmh W 3.0 mph4.8 kmh 29.91 in1012.9 mb 0.00 in0.0 mm 0.00 in0.0 mm 0.00 in0.0 mm
10:40 PM 58.5°F14.7°C 46.8°F8.2°C 65% 0.2 mph WSW0.3 kmh WSW 3.0 mph4.8 kmh 29.91 in1012.9 mb 0.00 in0.0 mm 0.00 in0.0 mm 0.00 in0.0 mm
10:45 PM 58.5°F14.7°C 47.2°F8.4°C 66% 0.2 mph NW0.3 kmh NW 1.5 mph2.4 kmh 29.91 in1012.9 mb 0.00 in0.0 mm 0.00 in0.0 mm 0.00 in0.0 mm
10:50 PM 58.5°F14.7°C 47.6°F8.7°C 67% 0.2 mph NW0.3 kmh NW 1.5 mph2.4 kmh 29.91 in1012.9 mb 0.00 in0.0 mm 0.00 in0.0 mm 0.00 in0.0 mm
10:55 PM 58.5°F14.7°C 48.0°F8.9°C 68% Calm Calm -- 29.91 in1012.9 mb 0.00 in0.0 mm 0.00 in0.0 mm 0.00 in0.0 mm
11:00 PM 58.4°F14.7°C 47.8°F8.8°C 68% Calm Calm -- 29.91 in1012.9 mb 0.00 in0.0 mm 0.00 in0.0 mm 0.00 in0.0 mm
11:05 PM 58.2°F14.6°C 48.1°F8.9°C 69% Calm Calm -- 29.91 in1012.9 mb 0.00 in0.0 mm 0.00 in0.0 mm 0.00 in0.0 mm
11:10 PM 58.2°F14.6°C 48.1°F8.9°C 69% Calm Calm -- 29.91 in1012.9 mb 0.00 in0.0 mm 0.00 in0.0 mm 0.00 in0.0 mm
11:15 PM 58.0°F14.4°C 47.9°F8.8°C 69% Calm Calm -- 29.91 in1012.9 mb 0.00 in0.0 mm 0.00 in0.0 mm 0.00 in0.0 mm
11:20 PM 58.0°F14.4°C 48.3°F9.1°C 70% Calm Calm -- 29.91 in1012.9 mb 0.00 in0.0 mm 0.00 in0.0 mm 0.00 in0.0 mm
11:25 PM 57.8°F14.3°C 48.1°F8.9°C 70% Calm Calm -- 29.91 in1012.9 mb 0.00 in0.0 mm 0.00 in0.0 mm 0.00 in0.0 mm
11:30 PM 57.7°F14.3°C 47.9°F8.8°C 70% Calm Calm -- 29.91 in1012.9 mb 0.00 in0.0 mm 0.00 in0.0 mm 0.00 in0.0 mm
11:35 PM 57.7°F14.3°C 48.3°F9.1°C 71% Calm Calm -- 29.91 in1012.9 mb 0.00 in0.0 mm 0.00 in0.0 mm 0.00 in0.0 mm
11:40 PM 57.5°F14.2°C 48.1°F8.9°C 71% Calm Calm -- 29.91 in1012.9 mb 0.00 in0.0 mm 0.00 in0.0 mm 0.00 in0.0 mm
11:45 PM 57.5°F14.2°C 48.5°F9.2°C 72% Calm Calm -- 29.91 in1012.9 mb 0.00 in0.0 mm 0.00 in0.0 mm 0.00 in0.0 mm
11:50 PM 57.5°F14.2°C 48.5°F9.2°C 72% Calm Calm -- 29.91 in1012.9 mb 0.00 in0.0 mm 0.00 in0.0 mm 0.00 in0.0 mm
11:55 PM 57.5°F14.2°C 48.9°F9.4°C 73% 0.6 mph S1.0 kmh S 3.0 mph4.8 kmh 29.91 in1012.9 mb 0.00 in0.0 mm 0.00 in0.0 mm 0.00 in0.0 mm